sensor_id;sensor_type;location;lat;lon;timestamp;pressure;altitude;pressure_sealevel;temperature
15575;BMP180;7888;46.748;8.102;2023-04-27T00:01:14;94107.00;;;15.90
15575;BMP180;7888;46.748;8.102;2023-04-27T00:03:40;94096.00;;;15.90
15575;BMP180;7888;46.748;8.102;2023-04-27T00:06:09;94100.00;;;15.90
15575;BMP180;7888;46.748;8.102;2023-04-27T00:08:35;94095.00;;;15.90
15575;BMP180;7888;46.748;8.102;2023-04-27T00:11:01;94085.00;;;15.90
15575;BMP180;7888;46.748;8.102;2023-04-27T00:13:27;94092.00;;;15.90
15575;BMP180;7888;46.748;8.102;2023-04-27T00:15:53;94094.00;;;16.00
15575;BMP180;7888;46.748;8.102;2023-04-27T00:18:19;94076.00;;;16.00
15575;BMP180;7888;46.748;8.102;2023-04-27T00:20:45;94096.00;;;16.00
15575;BMP180;7888;46.748;8.102;2023-04-27T00:23:11;94094.00;;;15.90
15575;BMP180;7888;46.748;8.102;2023-04-27T00:25:37;94098.00;;;15.90
15575;BMP180;7888;46.748;8.102;2023-04-27T00:28:03;94090.00;;;15.90
15575;BMP180;7888;46.748;8.102;2023-04-27T00:30:29;94104.00;;;15.90
15575;BMP180;7888;46.748;8.102;2023-04-27T00:32:55;94097.00;;;15.80
15575;BMP180;7888;46.748;8.102;2023-04-27T00:35:21;94096.00;;;15.80
15575;BMP180;7888;46.748;8.102;2023-04-27T00:37:47;94093.00;;;15.80
15575;BMP180;7888;46.748;8.102;2023-04-27T00:40:13;94104.00;;;15.80
15575;BMP180;7888;46.748;8.102;2023-04-27T00:42:38;94094.00;;;15.80
15575;BMP180;7888;46.748;8.102;2023-04-27T00:45:05;94084.00;;;15.80
15575;BMP180;7888;46.748;8.102;2023-04-27T00:47:33;94068.00;;;15.80
15575;BMP180;7888;46.748;8.102;2023-04-27T00:50:00;94080.00;;;15.80
15575;BMP180;7888;46.748;8.102;2023-04-27T00:52:26;94084.00;;;15.80
15575;BMP180;7888;46.748;8.102;2023-04-27T00:54:52;94085.00;;;15.80
15575;BMP180;7888;46.748;8.102;2023-04-27T00:57:17;94078.00;;;15.80
15575;BMP180;7888;46.748;8.102;2023-04-27T00:59:43;94074.00;;;15.80
15575;BMP180;7888;46.748;8.102;2023-04-27T01:02:10;94074.00;;;15.80
15575;BMP180;7888;46.748;8.102;2023-04-27T01:04:37;94078.00;;;15.80
15575;BMP180;7888;46.748;8.102;2023-04-27T01:07:03;94080.00;;;15.80
15575;BMP180;7888;46.748;8.102;2023-04-27T01:09:29;94075.00;;;15.80
15575;BMP180;7888;46.748;8.102;2023-04-27T01:11:54;94073.00;;;15.80
15575;BMP180;7888;46.748;8.102;2023-04-27T01:14:22;94084.00;;;15.80
15575;BMP180;7888;46.748;8.102;2023-04-27T01:16:48;94073.00;;;15.70
15575;BMP180;7888;46.748;8.102;2023-04-27T01:19:15;94076.00;;;15.70
15575;BMP180;7888;46.748;8.102;2023-04-27T01:21:41;94085.00;;;15.70
15575;BMP180;7888;46.748;8.102;2023-04-27T01:24:07;94085.00;;;15.70
15575;BMP180;7888;46.748;8.102;2023-04-27T01:26:33;94095.00;;;15.70
15575;BMP180;7888;46.748;8.102;2023-04-27T01:28:59;94097.00;;;15.70
15575;BMP180;7888;46.748;8.102;2023-04-27T01:31:25;94096.00;;;15.70
15575;BMP180;7888;46.748;8.102;2023-04-27T01:33:51;94092.00;;;15.70
15575;BMP180;7888;46.748;8.102;2023-04-27T01:36:17;94093.00;;;15.70
15575;BMP180;7888;46.748;8.102;2023-04-27T01:38:43;94092.00;;;15.70
15575;BMP180;7888;46.748;8.102;2023-04-27T01:41:09;94095.00;;;15.70
15575;BMP180;7888;46.748;8.102;2023-04-27T01:43:35;94093.00;;;15.60
15575;BMP180;7888;46.748;8.102;2023-04-27T01:46:07;94098.00;;;15.60
15575;BMP180;7888;46.748;8.102;2023-04-27T01:48:34;94100.00;;;15.60
15575;BMP180;7888;46.748;8.102;2023-04-27T01:51:01;94100.00;;;15.60
15575;BMP180;7888;46.748;8.102;2023-04-27T01:53:27;94106.00;;;15.60
15575;BMP180;7888;46.748;8.102;2023-04-27T01:55:53;94111.00;;;15.60
15575;BMP180;7888;46.748;8.102;2023-04-27T01:58:18;94086.00;;;15.60
15575;BMP180;7888;46.748;8.102;2023-04-27T02:00:44;94103.00;;;15.60
15575;BMP180;7888;46.748;8.102;2023-04-27T02:03:10;94097.00;;;15.50
15575;BMP180;7888;46.748;8.102;2023-04-27T02:05:37;94093.00;;;15.50
15575;BMP180;7888;46.748;8.102;2023-04-27T02:08:03;94098.00;;;15.50
15575;BMP180;7888;46.748;8.102;2023-04-27T02:10:29;94097.00;;;15.40
15575;BMP180;7888;46.748;8.102;2023-04-27T02:12:55;94101.00;;;15.50
15575;BMP180;7888;46.748;8.102;2023-04-27T02:15:22;94097.00;;;15.40
15575;BMP180;7888;46.748;8.102;2023-04-27T02:17:48;94092.00;;;15.50
15575;BMP180;7888;46.748;8.102;2023-04-27T02:20:14;94090.00;;;15.40
15575;BMP180;7888;46.748;8.102;2023-04-27T02:22:41;94091.00;;;15.40
15575;BMP180;7888;46.748;8.102;2023-04-27T02:25:12;94093.00;;;15.40
15575;BMP180;7888;46.748;8.102;2023-04-27T02:27:39;94094.00;;;15.30
15575;BMP180;7888;46.748;8.102;2023-04-27T02:30:10;94071.00;;;15.30
15575;BMP180;7888;46.748;8.102;2023-04-27T02:32:36;94092.00;;;15.20
15575;BMP180;7888;46.748;8.102;2023-04-27T02:35:03;94085.00;;;15.20
15575;BMP180;7888;46.748;8.102;2023-04-27T02:37:29;94094.00;;;15.20
15575;BMP180;7888;46.748;8.102;2023-04-27T02:39:55;94089.00;;;15.10
15575;BMP180;7888;46.748;8.102;2023-04-27T02:42:21;94069.00;;;15.10
15575;BMP180;7888;46.748;8.102;2023-04-27T02:44:48;94090.00;;;15.10
15575;BMP180;7888;46.748;8.102;2023-04-27T02:47:13;94090.00;;;15.00
15575;BMP180;7888;46.748;8.102;2023-04-27T02:49:39;94084.00;;;15.00
15575;BMP180;7888;46.748;8.102;2023-04-27T02:52:05;94085.00;;;15.00
15575;BMP180;7888;46.748;8.102;2023-04-27T02:54:32;94079.00;;;15.00
15575;BMP180;7888;46.748;8.102;2023-04-27T02:56:59;94088.00;;;14.90
15575;BMP180;7888;46.748;8.102;2023-04-27T02:59:25;94090.00;;;14.90
15575;BMP180;7888;46.748;8.102;2023-04-27T03:01:51;94087.00;;;14.90
15575;BMP180;7888;46.748;8.102;2023-04-27T03:04:17;94086.00;;;14.80
15575;BMP180;7888;46.748;8.102;2023-04-27T03:06:43;94092.00;;;14.80
15575;BMP180;7888;46.748;8.102;2023-04-27T03:09:09;94087.00;;;14.80
15575;BMP180;7888;46.748;8.102;2023-04-27T03:11:36;94090.00;;;14.80
15575;BMP180;7888;46.748;8.102;2023-04-27T03:14:02;94091.00;;;14.70
15575;BMP180;7888;46.748;8.102;2023-04-27T03:16:31;94096.00;;;14.60
15575;BMP180;7888;46.748;8.102;2023-04-27T03:18:58;94092.00;;;14.70
15575;BMP180;7888;46.748;8.102;2023-04-27T03:21:24;94088.00;;;14.70
15575;BMP180;7888;46.748;8.102;2023-04-27T03:23:50;94096.00;;;14.60
15575;BMP180;7888;46.748;8.102;2023-04-27T03:26:15;94093.00;;;14.60
15575;BMP180;7888;46.748;8.102;2023-04-27T03:28:42;94097.00;;;14.60
15575;BMP180;7888;46.748;8.102;2023-04-27T03:31:11;94094.00;;;14.50
15575;BMP180;7888;46.748;8.102;2023-04-27T03:33:38;94091.00;;;14.50
15575;BMP180;7888;46.748;8.102;2023-04-27T03:36:06;94093.00;;;14.50
15575;BMP180;7888;46.748;8.102;2023-04-27T03:38:34;94097.00;;;14.40
15575;BMP180;7888;46.748;8.102;2023-04-27T03:41:00;94097.00;;;14.40
15575;BMP180;7888;46.748;8.102;2023-04-27T03:43:26;94095.00;;;14.40
15575;BMP180;7888;46.748;8.102;2023-04-27T03:45:52;94090.00;;;14.40
15575;BMP180;7888;46.748;8.102;2023-04-27T03:48:19;94105.00;;;14.30
15575;BMP180;7888;46.748;8.102;2023-04-27T03:50:45;94108.00;;;14.30
15575;BMP180;7888;46.748;8.102;2023-04-27T03:53:12;94083.00;;;14.30
15575;BMP180;7888;46.748;8.102;2023-04-27T03:55:43;94104.00;;;14.20
15575;BMP180;7888;46.748;8.102;2023-04-27T03:58:10;94110.00;;;14.20
15575;BMP180;7888;46.748;8.102;2023-04-27T04:00:37;94112.00;;;14.20
15575;BMP180;7888;46.748;8.102;2023-04-27T04:03:04;94108.00;;;14.10
15575;BMP180;7888;46.748;8.102;2023-04-27T04:05:31;94101.00;;;14.10
15575;BMP180;7888;46.748;8.102;2023-04-27T04:08:00;94116.00;;;14.10
15575;BMP180;7888;46.748;8.102;2023-04-27T04:10:26;94118.00;;;14.00
15575;BMP180;7888;46.748;8.102;2023-04-27T04:12:52;94120.00;;;14.00
15575;BMP180;7888;46.748;8.102;2023-04-27T04:15:18;94082.00;;;14.00
15575;BMP180;7888;46.748;8.102;2023-04-27T04:17:45;94085.00;;;13.90
15575;BMP180;7888;46.748;8.102;2023-04-27T04:20:12;94112.00;;;13.90
15575;BMP180;7888;46.748;8.102;2023-04-27T04:22:38;94098.00;;;13.90
15575;BMP180;7888;46.748;8.102;2023-04-27T04:25:05;94120.00;;;13.80
15575;BMP180;7888;46.748;8.102;2023-04-27T04:27:31;94088.00;;;13.80
15575;BMP180;7888;46.748;8.102;2023-04-27T04:29:58;94117.00;;;13.70
15575;BMP180;7888;46.748;8.102;2023-04-27T04:32:26;94116.00;;;13.70
15575;BMP180;7888;46.748;8.102;2023-04-27T04:34:56;94105.00;;;13.70
15575;BMP180;7888;46.748;8.102;2023-04-27T04:37:23;94129.00;;;13.70
15575;BMP180;7888;46.748;8.102;2023-04-27T04:39:49;94121.00;;;13.70
15575;BMP180;7888;46.748;8.102;2023-04-27T04:42:15;94120.00;;;13.60
15575;BMP180;7888;46.748;8.102;2023-04-27T04:44:41;94130.00;;;13.60
15575;BMP180;7888;46.748;8.102;2023-04-27T04:47:07;94123.00;;;13.60
15575;BMP180;7888;46.748;8.102;2023-04-27T04:49:35;94132.00;;;13.40
15575;BMP180;7888;46.748;8.102;2023-04-27T04:52:01;94131.00;;;13.60
15575;BMP180;7888;46.748;8.102;2023-04-27T04:54:29;94125.00;;;13.50
15575;BMP180;7888;46.748;8.102;2023-04-27T04:56:54;94119.00;;;13.50
15575;BMP180;7888;46.748;8.102;2023-04-27T04:59:20;94116.00;;;13.50
15575;BMP180;7888;46.748;8.102;2023-04-27T05:01:46;94122.00;;;13.50
15575;BMP180;7888;46.748;8.102;2023-04-27T05:04:12;94133.00;;;13.50
15575;BMP180;7888;46.748;8.102;2023-04-27T05:06:38;94130.00;;;13.50
15575;BMP180;7888;46.748;8.102;2023-04-27T05:09:03;94132.00;;;13.50
15575;BMP180;7888;46.748;8.102;2023-04-27T05:11:32;94131.00;;;13.50
15575;BMP180;7888;46.748;8.102;2023-04-27T05:13:57;94125.00;;;13.50
15575;BMP180;7888;46.748;8.102;2023-04-27T05:16:23;94131.00;;;13.50
15575;BMP180;7888;46.748;8.102;2023-04-27T05:18:50;94118.00;;;13.40
15575;BMP180;7888;46.748;8.102;2023-04-27T05:21:17;94117.00;;;13.40
15575;BMP180;7888;46.748;8.102;2023-04-27T05:23:45;94120.00;;;13.40
15575;BMP180;7888;46.748;8.102;2023-04-27T05:26:13;94124.00;;;13.40
15575;BMP180;7888;46.748;8.102;2023-04-27T05:28:39;94121.00;;;13.40
15575;BMP180;7888;46.748;8.102;2023-04-27T05:31:05;94122.00;;;13.50
15575;BMP180;7888;46.748;8.102;2023-04-27T05:33:31;94119.00;;;13.50
15575;BMP180;7888;46.748;8.102;2023-04-27T05:35:57;94130.00;;;13.50
15575;BMP180;7888;46.748;8.102;2023-04-27T05:38:23;94122.00;;;13.50
15575;BMP180;7888;46.748;8.102;2023-04-27T05:40:58;94129.00;;;13.50
15575;BMP180;7888;46.748;8.102;2023-04-27T05:43:25;94131.00;;;13.50
15575;BMP180;7888;46.748;8.102;2023-04-27T05:45:51;94122.00;;;13.50
15575;BMP180;7888;46.748;8.102;2023-04-27T05:48:18;94133.00;;;13.60
15575;BMP180;7888;46.748;8.102;2023-04-27T05:50:44;94127.00;;;13.60
15575;BMP180;7888;46.748;8.102;2023-04-27T05:53:10;94122.00;;;13.70
15575;BMP180;7888;46.748;8.102;2023-04-27T05:55:36;94117.00;;;13.70
15575;BMP180;7888;46.748;8.102;2023-04-27T05:58:05;94129.00;;;13.80
15575;BMP180;7888;46.748;8.102;2023-04-27T06:00:31;94120.00;;;13.80
15575;BMP180;7888;46.748;8.102;2023-04-27T06:02:57;94135.00;;;13.90
15575;BMP180;7888;46.748;8.102;2023-04-27T06:05:23;94133.00;;;14.00
15575;BMP180;7888;46.748;8.102;2023-04-27T06:07:48;94137.00;;;14.00
15575;BMP180;7888;46.748;8.102;2023-04-27T06:10:14;94135.00;;;14.10
15575;BMP180;7888;46.748;8.102;2023-04-27T06:12:41;94135.00;;;14.20
15575;BMP180;7888;46.748;8.102;2023-04-27T06:15:07;94142.00;;;14.30
15575;BMP180;7888;46.748;8.102;2023-04-27T06:17:38;94118.00;;;14.30
15575;BMP180;7888;46.748;8.102;2023-04-27T06:20:06;94143.00;;;14.30
15575;BMP180;7888;46.748;8.102;2023-04-27T06:22:32;94142.00;;;14.50
15575;BMP180;7888;46.748;8.102;2023-04-27T06:24:58;94140.00;;;14.60
15575;BMP180;7888;46.748;8.102;2023-04-27T06:27:24;94144.00;;;14.70
15575;BMP180;7888;46.748;8.102;2023-04-27T06:29:50;94154.00;;;14.80
15575;BMP180;7888;46.748;8.102;2023-04-27T06:32:16;94130.00;;;14.90
15575;BMP180;7888;46.748;8.102;2023-04-27T06:34:42;94149.00;;;15.00
15575;BMP180;7888;46.748;8.102;2023-04-27T06:37:08;94141.00;;;15.10
15575;BMP180;7888;46.748;8.102;2023-04-27T06:39:34;94136.00;;;15.20
15575;BMP180;7888;46.748;8.102;2023-04-27T06:42:01;94145.00;;;15.30
15575;BMP180;7888;46.748;8.102;2023-04-27T06:44:29;94138.00;;;15.40
15575;BMP180;7888;46.748;8.102;2023-04-27T06:46:55;94133.00;;;15.50
15575;BMP180;7888;46.748;8.102;2023-04-27T06:49:21;94151.00;;;15.60
15575;BMP180;7888;46.748;8.102;2023-04-27T06:51:48;94147.00;;;15.70
15575;BMP180;7888;46.748;8.102;2023-04-27T06:54:13;94152.00;;;15.80
15575;BMP180;7888;46.748;8.102;2023-04-27T06:56:39;94151.00;;;15.80
15575;BMP180;7888;46.748;8.102;2023-04-27T06:59:07;94145.00;;;15.90
15575;BMP180;7888;46.748;8.102;2023-04-27T07:01:33;94151.00;;;16.00
15575;BMP180;7888;46.748;8.102;2023-04-27T07:03:59;94156.00;;;16.00
15575;BMP180;7888;46.748;8.102;2023-04-27T07:06:25;94153.00;;;16.10
15575;BMP180;7888;46.748;8.102;2023-04-27T07:08:51;94157.00;;;16.20
15575;BMP180;7888;46.748;8.102;2023-04-27T07:11:17;94150.00;;;16.20
15575;BMP180;7888;46.748;8.102;2023-04-27T07:13:42;94158.00;;;16.30
15575;BMP180;7888;46.748;8.102;2023-04-27T07:16:08;94148.00;;;16.40
15575;BMP180;7888;46.748;8.102;2023-04-27T07:18:34;94163.00;;;16.50
15575;BMP180;7888;46.748;8.102;2023-04-27T07:21:01;94153.00;;;16.60
15575;BMP180;7888;46.748;8.102;2023-04-27T07:23:27;94154.00;;;16.70
15575;BMP180;7888;46.748;8.102;2023-04-27T07:25:53;94146.00;;;16.80
15575;BMP180;7888;46.748;8.102;2023-04-27T07:28:19;94160.00;;;16.80
15575;BMP180;7888;46.748;8.102;2023-04-27T07:30:45;94144.00;;;17.10
15575;BMP180;7888;46.748;8.102;2023-04-27T07:33:12;94146.00;;;17.10
15575;BMP180;7888;46.748;8.102;2023-04-27T07:35:38;94159.00;;;17.30
15575;BMP180;7888;46.748;8.102;2023-04-27T07:38:04;94151.00;;;17.40
15575;BMP180;7888;46.748;8.102;2023-04-27T07:40:31;94147.00;;;17.50
15575;BMP180;7888;46.748;8.102;2023-04-27T07:42:57;94154.00;;;17.50
15575;BMP180;7888;46.748;8.102;2023-04-27T07:45:23;94149.00;;;17.60
15575;BMP180;7888;46.748;8.102;2023-04-27T07:47:57;94149.00;;;17.70
15575;BMP180;7888;46.748;8.102;2023-04-27T07:50:25;94122.00;;;17.80
15575;BMP180;7888;46.748;8.102;2023-04-27T07:52:52;94125.00;;;17.80
15575;BMP180;7888;46.748;8.102;2023-04-27T07:55:20;94144.00;;;18.00
15575;BMP180;7888;46.748;8.102;2023-04-27T07:57:46;94130.00;;;18.00
15575;BMP180;7888;46.748;8.102;2023-04-27T08:00:13;94132.00;;;18.10
15575;BMP180;7888;46.748;8.102;2023-04-27T08:02:38;94133.00;;;18.20
15575;BMP180;7888;46.748;8.102;2023-04-27T08:05:05;94132.00;;;18.30
15575;BMP180;7888;46.748;8.102;2023-04-27T08:07:32;94126.00;;;18.30
15575;BMP180;7888;46.748;8.102;2023-04-27T08:09:58;94122.00;;;18.40
15575;BMP180;7888;46.748;8.102;2023-04-27T08:12:24;94105.00;;;18.50
15575;BMP180;7888;46.748;8.102;2023-04-27T08:14:50;94118.00;;;18.50
15575;BMP180;7888;46.748;8.102;2023-04-27T08:17:16;94120.00;;;18.60
15575;BMP180;7888;46.748;8.102;2023-04-27T08:19:43;94120.00;;;18.70
15575;BMP180;7888;46.748;8.102;2023-04-27T08:22:08;94106.00;;;18.70
15575;BMP180;7888;46.748;8.102;2023-04-27T08:24:34;94117.00;;;18.80
15575;BMP180;7888;46.748;8.102;2023-04-27T08:27:01;94109.00;;;18.80
15575;BMP180;7888;46.748;8.102;2023-04-27T08:29:28;94102.00;;;18.90
15575;BMP180;7888;46.748;8.102;2023-04-27T08:31:56;94095.00;;;18.90
15575;BMP180;7888;46.748;8.102;2023-04-27T08:34:23;94097.00;;;19.00
15575;BMP180;7888;46.748;8.102;2023-04-27T08:36:48;94103.00;;;19.00
15575;BMP180;7888;46.748;8.102;2023-04-27T08:39:14;94097.00;;;19.20
15575;BMP180;7888;46.748;8.102;2023-04-27T08:41:41;94104.00;;;19.30
15575;BMP180;7888;46.748;8.102;2023-04-27T08:44:08;94092.00;;;19.30
15575;BMP180;7888;46.748;8.102;2023-04-27T08:46:36;94102.00;;;19.40
15575;BMP180;7888;46.748;8.102;2023-04-27T08:49:02;94096.00;;;19.40
15575;BMP180;7888;46.748;8.102;2023-04-27T08:51:28;94085.00;;;19.50
15575;BMP180;7888;46.748;8.102;2023-04-27T08:53:57;94105.00;;;19.50
15575;BMP180;7888;46.748;8.102;2023-04-27T08:56:26;94102.00;;;19.60
15575;BMP180;7888;46.748;8.102;2023-04-27T08:58:54;94092.00;;;19.70
15575;BMP180;7888;46.748;8.102;2023-04-27T09:01:23;94111.00;;;19.70
15575;BMP180;7888;46.748;8.102;2023-04-27T09:04:00;94101.00;;;19.70
15575;BMP180;7888;46.748;8.102;2023-04-27T09:06:34;94089.00;;;19.80
15575;BMP180;7888;46.748;8.102;2023-04-27T09:09:01;94098.00;;;19.80
15575;BMP180;7888;46.748;8.102;2023-04-27T09:13:59;94103.00;;;20.00
15575;BMP180;7888;46.748;8.102;2023-04-27T09:16:27;94118.00;;;20.00
15575;BMP180;7888;46.748;8.102;2023-04-27T09:18:55;94109.00;;;20.00
15575;BMP180;7888;46.748;8.102;2023-04-27T09:21:27;94107.00;;;20.00
15575;BMP180;7888;46.748;8.102;2023-04-27T09:23:54;94102.00;;;20.10
15575;BMP180;7888;46.748;8.102;2023-04-27T09:26:23;94105.00;;;20.10
15575;BMP180;7888;46.748;8.102;2023-04-27T09:28:52;94098.00;;;20.10
15575;BMP180;7888;46.748;8.102;2023-04-27T09:31:19;94095.00;;;20.20
15575;BMP180;7888;46.748;8.102;2023-04-27T09:33:54;94085.00;;;20.10
15575;BMP180;7888;46.748;8.102;2023-04-27T09:36:22;94101.00;;;20.20
15575;BMP180;7888;46.748;8.102;2023-04-27T09:38:50;94089.00;;;20.20
15575;BMP180;7888;46.748;8.102;2023-04-27T09:41:17;94106.00;;;20.20
15575;BMP180;7888;46.748;8.102;2023-04-27T09:43:44;94104.00;;;20.30
15575;BMP180;7888;46.748;8.102;2023-04-27T09:46:13;94092.00;;;20.40
15575;BMP180;7888;46.748;8.102;2023-04-27T09:48:41;94082.00;;;20.50
15575;BMP180;7888;46.748;8.102;2023-04-27T09:51:07;94097.00;;;20.50
15575;BMP180;7888;46.748;8.102;2023-04-27T09:53:45;94091.00;;;20.60
15575;BMP180;7888;46.748;8.102;2023-04-27T10:02:15;94112.00;;;20.80
15575;BMP180;7888;46.748;8.102;2023-04-27T10:07:40;94101.00;;;21.10
15575;BMP180;7888;46.748;8.102;2023-04-27T10:10:15;94108.00;;;21.20
15575;BMP180;7888;46.748;8.102;2023-04-27T10:12:43;94113.00;;;21.50
15575;BMP180;7888;46.748;8.102;2023-04-27T10:15:18;94097.00;;;21.60
15575;BMP180;7888;46.748;8.102;2023-04-27T10:17:49;94099.00;;;21.80
15575;BMP180;7888;46.748;8.102;2023-04-27T10:20:15;94101.00;;;21.90
15575;BMP180;7888;46.748;8.102;2023-04-27T10:22:48;94093.00;;;21.90
15575;BMP180;7888;46.748;8.102;2023-04-27T10:25:25;94108.00;;;22.00
15575;BMP180;7888;46.748;8.102;2023-04-27T10:28:02;94107.00;;;21.90
15575;BMP180;7888;46.748;8.102;2023-04-27T10:30:36;94100.00;;;21.90
15575;BMP180;7888;46.748;8.102;2023-04-27T10:33:08;94097.00;;;21.90
15575;BMP180;7888;46.748;8.102;2023-04-27T10:35:40;94101.00;;;21.90
15575;BMP180;7888;46.748;8.102;2023-04-27T10:38:09;94094.00;;;22.00
15575;BMP180;7888;46.748;8.102;2023-04-27T10:40:37;94096.00;;;22.00
15575;BMP180;7888;46.748;8.102;2023-04-27T10:43:16;94095.00;;;21.90
15575;BMP180;7888;46.748;8.102;2023-04-27T10:45:43;94090.00;;;21.90
15575;BMP180;7888;46.748;8.102;2023-04-27T10:48:13;94096.00;;;22.00
15575;BMP180;7888;46.748;8.102;2023-04-27T10:50:40;94090.00;;;22.10
15575;BMP180;7888;46.748;8.102;2023-04-27T10:53:07;94081.00;;;22.10
15575;BMP180;7888;46.748;8.102;2023-04-27T10:55:34;94086.00;;;22.20
15575;BMP180;7888;46.748;8.102;2023-04-27T10:58:00;94078.00;;;22.30
15575;BMP180;7888;46.748;8.102;2023-04-27T11:00:39;94076.00;;;22.40
15575;BMP180;7888;46.748;8.102;2023-04-27T11:03:21;94070.00;;;22.50
15575;BMP180;7888;46.748;8.102;2023-04-27T11:05:58;94076.00;;;22.60
15575;BMP180;7888;46.748;8.102;2023-04-27T11:08:24;94075.00;;;22.80
15575;BMP180;7888;46.748;8.102;2023-04-27T11:10:51;94065.00;;;22.80
15575;BMP180;7888;46.748;8.102;2023-04-27T11:13:20;94042.00;;;22.90
15575;BMP180;7888;46.748;8.102;2023-04-27T11:15:55;94061.00;;;23.00
15575;BMP180;7888;46.748;8.102;2023-04-27T11:18:29;94059.00;;;23.10
15575;BMP180;7888;46.748;8.102;2023-04-27T11:21:17;94062.00;;;23.10
15575;BMP180;7888;46.748;8.102;2023-04-27T11:23:43;94052.00;;;23.30
15575;BMP180;7888;46.748;8.102;2023-04-27T11:26:17;94054.00;;;23.40
15575;BMP180;7888;46.748;8.102;2023-04-27T11:29:08;94030.00;;;23.50
15575;BMP180;7888;46.748;8.102;2023-04-27T11:31:49;94055.00;;;23.70
15575;BMP180;7888;46.748;8.102;2023-04-27T11:34:23;94045.00;;;23.80
15575;BMP180;7888;46.748;8.102;2023-04-27T11:36:57;94043.00;;;23.90
15575;BMP180;7888;46.748;8.102;2023-04-27T11:39:33;94035.00;;;24.00
15575;BMP180;7888;46.748;8.102;2023-04-27T11:42:26;94033.00;;;24.10
15575;BMP180;7888;46.748;8.102;2023-04-27T11:44:59;94044.00;;;24.30
15575;BMP180;7888;46.748;8.102;2023-04-27T11:47:31;94028.00;;;24.40
15575;BMP180;7888;46.748;8.102;2023-04-27T11:50:01;94036.00;;;24.50
15575;BMP180;7888;46.748;8.102;2023-04-27T11:52:30;94028.00;;;24.60
15575;BMP180;7888;46.748;8.102;2023-04-27T11:54:58;94022.00;;;24.70
15575;BMP180;7888;46.748;8.102;2023-04-27T11:57:26;94025.00;;;24.80
15575;BMP180;7888;46.748;8.102;2023-04-27T11:59:53;94013.00;;;24.80
15575;BMP180;7888;46.748;8.102;2023-04-27T12:02:22;94008.00;;;25.00
15575;BMP180;7888;46.748;8.102;2023-04-27T12:04:49;94019.00;;;25.10
15575;BMP180;7888;46.748;8.102;2023-04-27T12:07:16;94011.00;;;25.20
15575;BMP180;7888;46.748;8.102;2023-04-27T12:09:42;94011.00;;;25.20
15575;BMP180;7888;46.748;8.102;2023-04-27T12:12:09;94023.00;;;25.30
15575;BMP180;7888;46.748;8.102;2023-04-27T12:14:35;94018.00;;;25.40
15575;BMP180;7888;46.748;8.102;2023-04-27T12:17:01;94026.00;;;25.40
15575;BMP180;7888;46.748;8.102;2023-04-27T12:19:27;94029.00;;;25.50
15575;BMP180;7888;46.748;8.102;2023-04-27T12:21:56;94003.00;;;25.50
15575;BMP180;7888;46.748;8.102;2023-04-27T12:24:23;94029.00;;;25.60
15575;BMP180;7888;46.748;8.102;2023-04-27T12:26:49;94035.00;;;25.60
15575;BMP180;7888;46.748;8.102;2023-04-27T12:29:16;94041.00;;;25.60
15575;BMP180;7888;46.748;8.102;2023-04-27T12:31:42;94034.00;;;25.60
15575;BMP180;7888;46.748;8.102;2023-04-27T12:34:09;94028.00;;;25.70
15575;BMP180;7888;46.748;8.102;2023-04-27T12:36:34;94028.00;;;25.70
15575;BMP180;7888;46.748;8.102;2023-04-27T12:39:19;94038.00;;;25.60
15575;BMP180;7888;46.748;8.102;2023-04-27T12:41:48;94029.00;;;25.60
15575;BMP180;7888;46.748;8.102;2023-04-27T12:44:16;94020.00;;;25.60
15575;BMP180;7888;46.748;8.102;2023-04-27T12:46:43;94027.00;;;25.60
15575;BMP180;7888;46.748;8.102;2023-04-27T12:49:10;94023.00;;;25.70
15575;BMP180;7888;46.748;8.102;2023-04-27T12:51:37;94032.00;;;25.70
15575;BMP180;7888;46.748;8.102;2023-04-27T12:54:04;94030.00;;;25.80
15575;BMP180;7888;46.748;8.102;2023-04-27T12:56:31;94026.00;;;25.90
15575;BMP180;7888;46.748;8.102;2023-04-27T12:58:57;94030.00;;;25.90
15575;BMP180;7888;46.748;8.102;2023-04-27T13:01:24;94029.00;;;25.90
15575;BMP180;7888;46.748;8.102;2023-04-27T13:03:58;94037.00;;;25.90
15575;BMP180;7888;46.748;8.102;2023-04-27T13:06:26;94002.00;;;26.10
15575;BMP180;7888;46.748;8.102;2023-04-27T13:08:52;94021.00;;;26.10
15575;BMP180;7888;46.748;8.102;2023-04-27T13:11:18;94018.00;;;26.10
15575;BMP180;7888;46.748;8.102;2023-04-27T13:13:44;94022.00;;;26.10
15575;BMP180;7888;46.748;8.102;2023-04-27T13:16:11;94020.00;;;26.10
15575;BMP180;7888;46.748;8.102;2023-04-27T13:18:38;94013.00;;;26.00
15575;BMP180;7888;46.748;8.102;2023-04-27T13:21:06;94021.00;;;26.00
15575;BMP180;7888;46.748;8.102;2023-04-27T13:23:33;94020.00;;;26.00
15575;BMP180;7888;46.748;8.102;2023-04-27T13:25:58;94019.00;;;26.00
15575;BMP180;7888;46.748;8.102;2023-04-27T13:28:25;94017.00;;;26.10
15575;BMP180;7888;46.748;8.102;2023-04-27T13:30:51;94023.00;;;26.20
15575;BMP180;7888;46.748;8.102;2023-04-27T13:33:17;94019.00;;;26.30
15575;BMP180;7888;46.748;8.102;2023-04-27T13:35:43;94024.00;;;26.40
15575;BMP180;7888;46.748;8.102;2023-04-27T13:38:09;94023.00;;;26.50
15575;BMP180;7888;46.748;8.102;2023-04-27T13:40:35;94017.00;;;26.40
15575;BMP180;7888;46.748;8.102;2023-04-27T13:43:00;94018.00;;;26.40
15575;BMP180;7888;46.748;8.102;2023-04-27T13:45:26;94009.00;;;26.40
15575;BMP180;7888;46.748;8.102;2023-04-27T13:47:52;94014.00;;;26.40
15575;BMP180;7888;46.748;8.102;2023-04-27T13:50:19;94017.00;;;26.40
15575;BMP180;7888;46.748;8.102;2023-04-27T13:52:45;94002.00;;;26.40
15575;BMP180;7888;46.748;8.102;2023-04-27T13:55:11;94019.00;;;26.40
15575;BMP180;7888;46.748;8.102;2023-04-27T13:57:37;94004.00;;;26.50
15575;BMP180;7888;46.748;8.102;2023-04-27T14:00:05;94011.00;;;26.60
15575;BMP180;7888;46.748;8.102;2023-04-27T14:02:36;94015.00;;;26.60
15575;BMP180;7888;46.748;8.102;2023-04-27T14:05:03;94004.00;;;26.60
15575;BMP180;7888;46.748;8.102;2023-04-27T14:07:30;94001.00;;;26.60
15575;BMP180;7888;46.748;8.102;2023-04-27T14:09:57;94016.00;;;26.60
15575;BMP180;7888;46.748;8.102;2023-04-27T14:12:23;94009.00;;;26.60
15575;BMP180;7888;46.748;8.102;2023-04-27T14:14:48;94008.00;;;26.60
15575;BMP180;7888;46.748;8.102;2023-04-27T14:17:14;94008.00;;;26.50
15575;BMP180;7888;46.748;8.102;2023-04-27T14:19:40;94000.00;;;26.50
15575;BMP180;7888;46.748;8.102;2023-04-27T14:22:08;94012.00;;;26.40
15575;BMP180;7888;46.748;8.102;2023-04-27T14:24:34;94020.00;;;26.30
15575;BMP180;7888;46.748;8.102;2023-04-27T14:27:00;94008.00;;;26.30
15575;BMP180;7888;46.748;8.102;2023-04-27T14:29:26;94004.00;;;26.40
15575;BMP180;7888;46.748;8.102;2023-04-27T14:31:51;94009.00;;;26.50
15575;BMP180;7888;46.748;8.102;2023-04-27T14:34:17;94010.00;;;26.50